METAR Data
IDs: Format: Raw Decoded Include TAF

Data at: 1529 UTC 24 Aug 2019

PASH 241456Z AUTO 30010KT 9SM OVC015 08/05 A2989 RMK AO2 SLP123 T00780050 56003
PASH 241356Z AUTO 30010KT 9SM OVC015 08/05 A2989 RMK AO2 SLP124 T00780050
PASH 241256Z AUTO 30011KT 9SM OVC015 08/06 A2990 RMK AO2 SLP125 T00830056
PASH 241156Z AUTO 33009KT 9SM OVC017 08/05 A2990 RMK AO2 SLP126 T00830050 10094 20083 55003
PASH 241056Z AUTO 33012KT 9SM OVC017 08/06 A2990 RMK AO2 SLP124 T00830056
PASH 240956Z AUTO 35012KT 9SM BKN019 09/06 A2989 RMK AO2 SLP124 T00890056
PASH 240856Z AUTO 32011KT 9SM OVC019 09/06 A2991 RMK AO2 SLP129 T00890056 401000083 53006
PASH 240756Z AUTO 34013KT 8SM OVC019 09/06 A2990 RMK AO2 SLP126 T00890061
PASH 240656Z AUTO 33013KT 6SM BR OVC019 09/07 A2989 RMK AO2 SLP123 T00890067
PASH 240556Z AUTO 33014KT 6SM HZ OVC021 09/06 A2989 RMK AO2 SLP122 T00940061 10100 20094 53002
PASH 240456Z AUTO 34014KT 6SM HZ OVC021 09/06 A2988 RMK AO2 SLP120 T00940061
PASH 240356Z AUTO 34016KT 6SM HZ OVC021 09/06 A2988 RMK AO2 SLP119 T00940061
PASH 240256Z AUTO 34014KT 7SM OVC023 09/06 A2988 RMK AO2 SLP121 T00940056 53000
PASH 240156Z AUTO 35015G22KT 6SM HZ OVC021 10/06 A2988 RMK AO2 SLP120 T01000056
PASH 240056Z AUTO 35015KT 7SM OVC023 10/06 A2988 RMK AO2 SLP120 T01000061
PASH 232356Z AUTO 36018KT 7SM OVC021 09/06 A2988 RMK AO2 SLP120 60000 T00940056 10100 20089 53005
PASH 232256Z AUTO 36017KT 6SM HZ OVC020 09/06 A2988 RMK AO2 SLP118 T00940061
PASH 232211Z AUTO 36018KT 4SM BR FEW015 OVC021 09/07 A2987 RMK AO2
PASH 232156Z AUTO 35018KT 3SM BR FEW007 BKN013 OVC021 09/07 A2987 RMK AO2 RAE41 SLP115 P0000 T00890072
PASH 232134Z AUTO 34017KT 4SM -RA BR SCT011 OVC023 09/07 A2986 RMK AO2 P0000
PASH 232120Z AUTO 36015KT 3SM -RA BR BKN011 BKN017 OVC025 09/08 A2986 RMK AO2 P0000
PASH 232117Z AUTO 35016KT 2SM -RA BR SCT011 BKN017 OVC025 09/08 A2986 RMK AO2 VIS 1 1/4V5 P0000
PASH 232113Z AUTO 34015G23KT 2SM -RA BR BKN013 BKN017 OVC025 09/08 A2986 RMK AO2 VIS 3/4V5 P0000
PASH 232029Z AUTO 34013KT 3SM BR FEW015 OVC021 09/08 A2986 RMK AO2
PASH 232022Z AUTO 34016KT 1 3/4SM BR SCT012 BKN018 OVC023 09/07 A2986 RMK AO2
PASH 231956Z AUTO 34019KT 6SM BR OVC012 09/07 A2985 RMK AO2 SLP109 T00940072
PASH 231929Z AUTO 34021KT 6SM BR OVC010 09/08 A2985 RMK AO2 CIG 008V013
PASH 231903Z AUTO 34019KT 4SM BR OVC008 09/08 A2984 RMK AO2 CIG 005V010
PASH 231856Z AUTO 35021G27KT 2 1/2SM BR OVC008 09/08 A2984 RMK AO2 PK WND 34027/1848 VIS 1 3/4V4 RAB25E39 CIG 005V011 SLP106 P0000 T00940083
PASH 231848Z AUTO 34023G27KT 2 1/2SM BR OVC008 09/08 A2984 RMK AO2 PK WND 34027/1848 RAB25E39 CIG 005V012 P0000
PASH 231819Z AUTO 34021KT 5SM BR OVC010 09/08 A2983 RMK AO2 CIG 008V013
PASH 231756Z AUTO 34021KT 4SM BR OVC008 09/08 A2983 RMK AO2 RAB1657E07 CIG 007V011 SLP102 P0000 60000 T00940083 10094 20089 50000
PASH 231733Z AUTO 34019KT 5SM BR OVC006 09/08 A2983 RMK AO2 RAB1657E07 CIG 005V009 P0000
PASH 231656Z AUTO 34018KT 4SM BR OVC004 09/08 A2983 RMK AO2 SLP103 T00940083
PASH 231633Z AUTO 34019KT 3SM BR OVC004 09/08 A2983 RMK AO2
PASH 231607Z AUTO 34020KT 3SM BR OVC006 09/08 A2983 RMK AO2
PASH 231556Z AUTO 34018KT 4SM BR OVC004 09/08 A2983 RMK AO2 SLP103 T00940083
PASH 231456Z AUTO 33023KT 5SM BR OVC004 09/08 A2983 RMK AO2 PK WND 33026/1451 RAE1358 SLP102 P0000 60000 T00890083 56005
PASH 231452Z AUTO 33022KT 5SM BR OVC004 09/08 A2983 RMK AO2 PK WND 33026/1451 RAE1358 P0000
PASH 231356Z AUTO 33020KT 6SM -RA BR OVC006 09/08 A2983 RMK AO2 RAB35 SLP104 P0000 T00890083
PASH 231256Z AUTO 33016KT 6SM BR OVC006 09/08 A2984 RMK AO2 SLP107 T00890078
PASH 231203Z AUTO 32015KT 6SM BR OVC008 09/08 A2984 RMK AO2 CIG 007V012
PASH 231156Z AUTO 32016KT 6SM BR OVC010 09/07 A2984 RMK AO2 CIG 008V013 SLP107 60000 T00890072 10089 20083 58007
PASH 231018Z AUTO 34015KT 8SM BKN014 OVC020 09/07 A2986 RMK AO2
PASH 230956Z AUTO 33018KT 7SM SCT012 OVC018 09/07 A2986 RMK AO2 RAB05E37 SLP112 P0000 T00890067
PASH 230856Z AUTO 33017KT 7SM BKN015 OVC022 08/07 A2986 RMK AO2 SLP114 T00830067 401170083 55000
PASH 230756Z AUTO 35017KT 8SM OVC020 09/06 A2986 RMK AO2 SLP114 T00890056
PASH 230656Z AUTO 34019KT 7SM OVC019 09/05 A2986 RMK AO2 SLP113 T00890050
PASH 230556Z AUTO 34020KT 5SM BR OVC015 08/06 A2986 RMK AO2 PK WND 34028/0500 SLP114 60000 T00830061 10106 20083 53001
PASH 230456Z AUTO 34022KT 6SM HZ SCT014 OVC024 09/06 A2986 RMK AO2 PK WND 34027/0450 SLP112 T00890061
PASH 230356Z AUTO 34024KT 6SM BR BKN014 OVC021 09/07 A2986 RMK AO2 PK WND 34029/0349 SLP112 T00890067